sensor_id;sensor_type;location;lat;lon;timestamp;temperature;humidity
7998;DHT22;4044;49.814;7.828;2022-12-18T00:01:27;-3.40;92.20
7998;DHT22;4044;49.814;7.828;2022-12-18T00:03:54;-3.30;92.40
7998;DHT22;4044;49.814;7.828;2022-12-18T00:06:21;-3.20;92.10
7998;DHT22;4044;49.814;7.828;2022-12-18T00:08:47;-3.20;91.90
7998;DHT22;4044;49.814;7.828;2022-12-18T00:11:19;-3.10;91.70
7998;DHT22;4044;49.814;7.828;2022-12-18T00:13:45;-3.10;91.70
7998;DHT22;4044;49.814;7.828;2022-12-18T00:16:13;-3.00;91.80
7998;DHT22;4044;49.814;7.828;2022-12-18T00:18:40;-3.10;91.70
7998;DHT22;4044;49.814;7.828;2022-12-18T00:21:08;-3.10;91.90
7998;DHT22;4044;49.814;7.828;2022-12-18T00:23:35;-3.20;92.00
7998;DHT22;4044;49.814;7.828;2022-12-18T00:26:33;-3.30;92.20
7998;DHT22;4044;49.814;7.828;2022-12-18T00:28:59;-3.30;92.10
7998;DHT22;4044;49.814;7.828;2022-12-18T00:31:25;-3.30;92.30
7998;DHT22;4044;49.814;7.828;2022-12-18T00:33:53;-3.30;92.20
7998;DHT22;4044;49.814;7.828;2022-12-18T00:36:21;-3.20;92.00
7998;DHT22;4044;49.814;7.828;2022-12-18T00:38:47;-3.30;91.90
7998;DHT22;4044;49.814;7.828;2022-12-18T00:41:15;-3.30;92.30
7998;DHT22;4044;49.814;7.828;2022-12-18T00:44:04;-3.40;92.20
7998;DHT22;4044;49.814;7.828;2022-12-18T00:46:30;-3.50;92.60
7998;DHT22;4044;49.814;7.828;2022-12-18T00:48:55;-3.50;92.40
7998;DHT22;4044;49.814;7.828;2022-12-18T00:51:21;-3.40;92.20
7998;DHT22;4044;49.814;7.828;2022-12-18T00:53:46;-3.50;92.40
7998;DHT22;4044;49.814;7.828;2022-12-18T00:56:12;-3.70;92.70
7998;DHT22;4044;49.814;7.828;2022-12-18T00:58:37;-3.70;92.60
7998;DHT22;4044;49.814;7.828;2022-12-18T01:01:06;-3.60;92.90
7998;DHT22;4044;49.814;7.828;2022-12-18T01:03:32;-3.90;93.00
7998;DHT22;4044;49.814;7.828;2022-12-18T01:05:58;-3.80;93.10
7998;DHT22;4044;49.814;7.828;2022-12-18T01:08:23;-3.60;92.80
7998;DHT22;4044;49.814;7.828;2022-12-18T01:10:49;-3.50;92.40
7998;DHT22;4044;49.814;7.828;2022-12-18T01:13:14;-3.50;92.60
7998;DHT22;4044;49.814;7.828;2022-12-18T01:15:40;-3.50;92.70
7998;DHT22;4044;49.814;7.828;2022-12-18T01:18:06;-3.30;92.80
7998;DHT22;4044;49.814;7.828;2022-12-18T01:20:32;-3.30;92.40
7998;DHT22;4044;49.814;7.828;2022-12-18T01:22:58;-3.30;92.30
7998;DHT22;4044;49.814;7.828;2022-12-18T01:25:23;-3.20;92.50
7998;DHT22;4044;49.814;7.828;2022-12-18T01:27:49;-3.30;92.30
7998;DHT22;4044;49.814;7.828;2022-12-18T01:30:14;-3.30;92.40
7998;DHT22;4044;49.814;7.828;2022-12-18T01:32:40;-3.40;92.60
7998;DHT22;4044;49.814;7.828;2022-12-18T01:35:06;-3.30;92.50
7998;DHT22;4044;49.814;7.828;2022-12-18T01:37:32;-3.20;92.20
7998;DHT22;4044;49.814;7.828;2022-12-18T01:39:57;-3.20;92.50
7998;DHT22;4044;49.814;7.828;2022-12-18T01:42:23;-3.20;92.60
7998;DHT22;4044;49.814;7.828;2022-12-18T01:45:21;-3.30;92.60
7998;DHT22;4044;49.814;7.828;2022-12-18T01:47:52;-3.30;92.80
7998;DHT22;4044;49.814;7.828;2022-12-18T01:50:39;-3.30;92.70
7998;DHT22;4044;49.814;7.828;2022-12-18T01:55:59;-3.40;92.90
7998;DHT22;4044;49.814;7.828;2022-12-18T01:58:39;-3.40;92.90
7998;DHT22;4044;49.814;7.828;2022-12-18T02:01:06;-3.50;93.30
7998;DHT22;4044;49.814;7.828;2022-12-18T02:03:32;-3.50;93.30
7998;DHT22;4044;49.814;7.828;2022-12-18T02:14:14;-3.50;93.30
7998;DHT22;4044;49.814;7.828;2022-12-18T02:16:53;-3.50;93.20
7998;DHT22;4044;49.814;7.828;2022-12-18T02:22:20;-3.60;93.60
7998;DHT22;4044;49.814;7.828;2022-12-18T02:27:18;-3.60;93.00
7998;DHT22;4044;49.814;7.828;2022-12-18T02:29:49;-3.50;93.10
7998;DHT22;4044;49.814;7.828;2022-12-18T02:32:19;-3.50;93.10
7998;DHT22;4044;49.814;7.828;2022-12-18T02:34:48;-3.50;93.00
7998;DHT22;4044;49.814;7.828;2022-12-18T02:37:18;-3.40;93.10
7998;DHT22;4044;49.814;7.828;2022-12-18T02:39:47;-3.50;93.00
7998;DHT22;4044;49.814;7.828;2022-12-18T02:42:13;-3.40;93.30
7998;DHT22;4044;49.814;7.828;2022-12-18T02:44:48;-3.50;92.80
7998;DHT22;4044;49.814;7.828;2022-12-18T02:47:16;-3.40;92.90
7998;DHT22;4044;49.814;7.828;2022-12-18T02:49:46;-3.40;92.80
7998;DHT22;4044;49.814;7.828;2022-12-18T02:55:08;-3.40;92.60
7998;DHT22;4044;49.814;7.828;2022-12-18T02:57:49;-3.30;92.40
7998;DHT22;4044;49.814;7.828;2022-12-18T03:00:21;-3.30;92.50
7998;DHT22;4044;49.814;7.828;2022-12-18T03:02:49;-3.30;92.50
7998;DHT22;4044;49.814;7.828;2022-12-18T03:05:17;-3.40;92.20
7998;DHT22;4044;49.814;7.828;2022-12-18T03:08:04;-3.50;92.20
7998;DHT22;4044;49.814;7.828;2022-12-18T03:10:33;-3.50;92.50
7998;DHT22;4044;49.814;7.828;2022-12-18T03:13:06;-3.50;92.50
7998;DHT22;4044;49.814;7.828;2022-12-18T03:15:37;-3.50;92.50
7998;DHT22;4044;49.814;7.828;2022-12-18T03:18:15;-3.40;92.40
7998;DHT22;4044;49.814;7.828;2022-12-18T03:20:43;-3.50;92.50
7998;DHT22;4044;49.814;7.828;2022-12-18T03:23:12;-3.50;92.40
7998;DHT22;4044;49.814;7.828;2022-12-18T03:25:41;-3.40;92.40
7998;DHT22;4044;49.814;7.828;2022-12-18T03:28:12;-3.30;92.20
7998;DHT22;4044;49.814;7.828;2022-12-18T03:30:39;-3.30;92.20
7998;DHT22;4044;49.814;7.828;2022-12-18T03:33:10;-3.20;92.20
7998;DHT22;4044;49.814;7.828;2022-12-18T03:35:42;-3.20;91.90
7998;DHT22;4044;49.814;7.828;2022-12-18T03:38:09;-3.20;91.80
7998;DHT22;4044;49.814;7.828;2022-12-18T03:41:13;-3.30;91.70
7998;DHT22;4044;49.814;7.828;2022-12-18T03:44:02;-3.40;91.50
7998;DHT22;4044;49.814;7.828;2022-12-18T03:46:35;-3.40;91.60
7998;DHT22;4044;49.814;7.828;2022-12-18T03:49:12;-3.60;91.50
7998;DHT22;4044;49.814;7.828;2022-12-18T03:51:52;-3.80;91.70
7998;DHT22;4044;49.814;7.828;2022-12-18T03:54:19;-3.80;92.20
7998;DHT22;4044;49.814;7.828;2022-12-18T03:56:58;-3.70;92.10
7998;DHT22;4044;49.814;7.828;2022-12-18T03:59:25;-3.70;92.00
7998;DHT22;4044;49.814;7.828;2022-12-18T04:01:52;-3.70;92.00
7998;DHT22;4044;49.814;7.828;2022-12-18T04:04:20;-3.60;91.80
7998;DHT22;4044;49.814;7.828;2022-12-18T04:06:48;-3.60;91.80
7998;DHT22;4044;49.814;7.828;2022-12-18T04:09:15;-3.60;91.70
7998;DHT22;4044;49.814;7.828;2022-12-18T04:11:41;-3.60;91.70
7998;DHT22;4044;49.814;7.828;2022-12-18T04:14:09;-3.60;91.60
7998;DHT22;4044;49.814;7.828;2022-12-18T04:16:35;-3.60;91.60
7998;DHT22;4044;49.814;7.828;2022-12-18T04:19:00;-3.70;91.60
7998;DHT22;4044;49.814;7.828;2022-12-18T04:21:26;-3.80;91.70
7998;DHT22;4044;49.814;7.828;2022-12-18T04:23:52;-3.90;91.80
7998;DHT22;4044;49.814;7.828;2022-12-18T04:26:17;-3.90;91.70
7998;DHT22;4044;49.814;7.828;2022-12-18T04:28:43;-3.90;91.60
7998;DHT22;4044;49.814;7.828;2022-12-18T04:31:08;-3.90;91.60
7998;DHT22;4044;49.814;7.828;2022-12-18T04:33:34;-3.90;91.60
7998;DHT22;4044;49.814;7.828;2022-12-18T04:35:59;-3.90;91.60
7998;DHT22;4044;49.814;7.828;2022-12-18T04:38:25;-3.90;91.60
7998;DHT22;4044;49.814;7.828;2022-12-18T04:40:50;-3.80;91.70
7998;DHT22;4044;49.814;7.828;2022-12-18T04:43:16;-3.80;91.70
7998;DHT22;4044;49.814;7.828;2022-12-18T04:45:41;-3.80;91.60
7998;DHT22;4044;49.814;7.828;2022-12-18T04:48:07;-3.70;91.60
7998;DHT22;4044;49.814;7.828;2022-12-18T04:50:32;-3.70;91.50
7998;DHT22;4044;49.814;7.828;2022-12-18T04:52:58;-3.90;91.60
7998;DHT22;4044;49.814;7.828;2022-12-18T04:55:23;-3.80;91.80
7998;DHT22;4044;49.814;7.828;2022-12-18T04:57:49;-3.80;91.70
7998;DHT22;4044;49.814;7.828;2022-12-18T05:00:15;-3.80;91.70
7998;DHT22;4044;49.814;7.828;2022-12-18T05:02:40;-3.80;91.60
7998;DHT22;4044;49.814;7.828;2022-12-18T05:05:06;-3.80;91.70
7998;DHT22;4044;49.814;7.828;2022-12-18T05:07:32;-3.80;91.60
7998;DHT22;4044;49.814;7.828;2022-12-18T05:09:57;-3.70;91.60
7998;DHT22;4044;49.814;7.828;2022-12-18T05:12:23;-3.80;91.60
7998;DHT22;4044;49.814;7.828;2022-12-18T05:14:49;-3.80;91.50
7998;DHT22;4044;49.814;7.828;2022-12-18T05:17:14;-3.70;91.70
7998;DHT22;4044;49.814;7.828;2022-12-18T05:19:39;-3.70;91.80
7998;DHT22;4044;49.814;7.828;2022-12-18T05:22:06;-3.70;91.70
7998;DHT22;4044;49.814;7.828;2022-12-18T05:24:32;-3.70;91.60
7998;DHT22;4044;49.814;7.828;2022-12-18T05:26:57;-3.60;91.60
7998;DHT22;4044;49.814;7.828;2022-12-18T05:29:23;-3.60;91.60
7998;DHT22;4044;49.814;7.828;2022-12-18T05:31:48;-3.60;91.50
7998;DHT22;4044;49.814;7.828;2022-12-18T05:34:14;-3.60;91.30
7998;DHT22;4044;49.814;7.828;2022-12-18T05:36:39;-3.60;91.30
7998;DHT22;4044;49.814;7.828;2022-12-18T05:39:05;-3.60;91.40
7998;DHT22;4044;49.814;7.828;2022-12-18T05:41:31;-3.60;91.30
7998;DHT22;4044;49.814;7.828;2022-12-18T05:43:56;-3.60;91.20
7998;DHT22;4044;49.814;7.828;2022-12-18T05:46:23;-3.60;91.20
7998;DHT22;4044;49.814;7.828;2022-12-18T05:48:49;-3.50;91.40
7998;DHT22;4044;49.814;7.828;2022-12-18T05:51:18;-3.60;91.10
7998;DHT22;4044;49.814;7.828;2022-12-18T05:53:44;-3.60;91.30
7998;DHT22;4044;49.814;7.828;2022-12-18T05:56:16;-3.60;91.50
7998;DHT22;4044;49.814;7.828;2022-12-18T05:58:42;-3.60;91.50
7998;DHT22;4044;49.814;7.828;2022-12-18T06:01:20;-3.60;91.40
7998;DHT22;4044;49.814;7.828;2022-12-18T06:03:46;-3.70;91.50
7998;DHT22;4044;49.814;7.828;2022-12-18T06:06:17;-3.60;91.40
7998;DHT22;4044;49.814;7.828;2022-12-18T06:08:43;-3.60;91.30
7998;DHT22;4044;49.814;7.828;2022-12-18T06:11:08;-3.60;91.40
7998;DHT22;4044;49.814;7.828;2022-12-18T06:13:34;-3.60;91.50
7998;DHT22;4044;49.814;7.828;2022-12-18T06:16:03;-3.60;91.30
7998;DHT22;4044;49.814;7.828;2022-12-18T06:18:28;-3.50;91.40
7998;DHT22;4044;49.814;7.828;2022-12-18T06:20:58;-3.50;91.40
7998;DHT22;4044;49.814;7.828;2022-12-18T06:23:24;-3.50;91.30
7998;DHT22;4044;49.814;7.828;2022-12-18T06:25:49;-3.50;91.40
7998;DHT22;4044;49.814;7.828;2022-12-18T06:28:15;-3.50;91.30
7998;DHT22;4044;49.814;7.828;2022-12-18T06:30:43;-3.50;91.20
7998;DHT22;4044;49.814;7.828;2022-12-18T06:33:09;-3.50;91.50
7998;DHT22;4044;49.814;7.828;2022-12-18T06:35:35;-3.50;91.30
7998;DHT22;4044;49.814;7.828;2022-12-18T06:38:02;-3.60;91.30
7998;DHT22;4044;49.814;7.828;2022-12-18T06:40:27;-3.70;91.40
7998;DHT22;4044;49.814;7.828;2022-12-18T06:42:53;-3.70;91.30
7998;DHT22;4044;49.814;7.828;2022-12-18T06:45:18;-3.70;91.20
7998;DHT22;4044;49.814;7.828;2022-12-18T06:47:44;-3.80;91.20
7998;DHT22;4044;49.814;7.828;2022-12-18T06:50:10;-3.90;91.20
7998;DHT22;4044;49.814;7.828;2022-12-18T06:52:35;-4.00;91.10
7998;DHT22;4044;49.814;7.828;2022-12-18T06:55:02;-4.00;91.20
7998;DHT22;4044;49.814;7.828;2022-12-18T06:57:28;-4.10;91.20
7998;DHT22;4044;49.814;7.828;2022-12-18T06:59:53;-4.20;91.10
7998;DHT22;4044;49.814;7.828;2022-12-18T07:02:19;-4.30;91.20
7998;DHT22;4044;49.814;7.828;2022-12-18T07:04:44;-4.30;91.40
7998;DHT22;4044;49.814;7.828;2022-12-18T07:07:10;-4.40;91.50
7998;DHT22;4044;49.814;7.828;2022-12-18T07:09:35;-4.50;91.40
7998;DHT22;4044;49.814;7.828;2022-12-18T07:12:01;-4.50;91.60
7998;DHT22;4044;49.814;7.828;2022-12-18T07:14:26;-4.50;91.50
7998;DHT22;4044;49.814;7.828;2022-12-18T07:16:52;-4.50;91.50
7998;DHT22;4044;49.814;7.828;2022-12-18T07:19:17;-4.50;91.50
7998;DHT22;4044;49.814;7.828;2022-12-18T07:21:43;-4.60;91.50
7998;DHT22;4044;49.814;7.828;2022-12-18T07:24:08;-4.60;91.50
7998;DHT22;4044;49.814;7.828;2022-12-18T07:26:34;-4.60;91.40
7998;DHT22;4044;49.814;7.828;2022-12-18T07:28:59;-4.70;91.50
7998;DHT22;4044;49.814;7.828;2022-12-18T07:31:26;-4.70;91.50
7998;DHT22;4044;49.814;7.828;2022-12-18T07:33:52;-4.80;91.60
7998;DHT22;4044;49.814;7.828;2022-12-18T07:36:18;-4.90;91.50
7998;DHT22;4044;49.814;7.828;2022-12-18T07:38:46;-5.00;91.60
7998;DHT22;4044;49.814;7.828;2022-12-18T07:41:13;-5.10;91.70
7998;DHT22;4044;49.814;7.828;2022-12-18T07:43:40;-5.40;92.10
7998;DHT22;4044;49.814;7.828;2022-12-18T07:46:07;-5.40;92.40
7998;DHT22;4044;49.814;7.828;2022-12-18T07:48:33;-5.40;92.20
7998;DHT22;4044;49.814;7.828;2022-12-18T07:51:03;-5.40;92.00
7998;DHT22;4044;49.814;7.828;2022-12-18T07:53:30;-5.30;91.90
7998;DHT22;4044;49.814;7.828;2022-12-18T07:56:04;-5.30;91.60
7998;DHT22;4044;49.814;7.828;2022-12-18T07:58:30;-5.20;91.80
7998;DHT22;4044;49.814;7.828;2022-12-18T08:01:07;-5.10;91.80
7998;DHT22;4044;49.814;7.828;2022-12-18T08:03:33;-5.10;91.70
7998;DHT22;4044;49.814;7.828;2022-12-18T08:06:00;-5.00;91.50
7998;DHT22;4044;49.814;7.828;2022-12-18T08:08:25;-5.00;91.50
7998;DHT22;4044;49.814;7.828;2022-12-18T08:10:51;-5.00;91.30
7998;DHT22;4044;49.814;7.828;2022-12-18T08:13:16;-5.00;91.20
7998;DHT22;4044;49.814;7.828;2022-12-18T08:15:42;-5.10;91.30
7998;DHT22;4044;49.814;7.828;2022-12-18T08:18:08;-5.20;91.20
7998;DHT22;4044;49.814;7.828;2022-12-18T08:20:33;-5.30;91.40
7998;DHT22;4044;49.814;7.828;2022-12-18T08:22:59;-5.40;91.40
7998;DHT22;4044;49.814;7.828;2022-12-18T08:25:24;-5.50;91.50
7998;DHT22;4044;49.814;7.828;2022-12-18T08:27:50;-5.80;91.50
7998;DHT22;4044;49.814;7.828;2022-12-18T08:30:15;-5.80;91.70
7998;DHT22;4044;49.814;7.828;2022-12-18T08:32:41;-5.90;92.00
7998;DHT22;4044;49.814;7.828;2022-12-18T08:35:07;-5.80;92.10
7998;DHT22;4044;49.814;7.828;2022-12-18T08:37:33;-5.70;91.90
7998;DHT22;4044;49.814;7.828;2022-12-18T08:39:59;-5.70;92.00
7998;DHT22;4044;49.814;7.828;2022-12-18T08:42:25;-5.60;92.00
7998;DHT22;4044;49.814;7.828;2022-12-18T08:45:09;-5.60;91.80
7998;DHT22;4044;49.814;7.828;2022-12-18T08:47:35;-5.60;92.00
7998;DHT22;4044;49.814;7.828;2022-12-18T08:50:01;-5.50;92.20
7998;DHT22;4044;49.814;7.828;2022-12-18T08:52:26;-5.30;92.10
7998;DHT22;4044;49.814;7.828;2022-12-18T08:54:53;-5.20;92.00
7998;DHT22;4044;49.814;7.828;2022-12-18T08:57:18;-5.20;91.90
7998;DHT22;4044;49.814;7.828;2022-12-18T08:59:44;-5.10;91.90
7998;DHT22;4044;49.814;7.828;2022-12-18T09:02:11;-5.10;91.60
7998;DHT22;4044;49.814;7.828;2022-12-18T09:04:36;-5.00;91.50
7998;DHT22;4044;49.814;7.828;2022-12-18T09:07:02;-5.00;91.60
7998;DHT22;4044;49.814;7.828;2022-12-18T09:09:28;-4.90;91.60
7998;DHT22;4044;49.814;7.828;2022-12-18T09:11:54;-4.80;91.60
7998;DHT22;4044;49.814;7.828;2022-12-18T09:14:19;-4.70;91.60
7998;DHT22;4044;49.814;7.828;2022-12-18T09:16:45;-4.60;91.60
7998;DHT22;4044;49.814;7.828;2022-12-18T09:19:10;-4.50;91.40
7998;DHT22;4044;49.814;7.828;2022-12-18T09:21:36;-4.40;91.30
7998;DHT22;4044;49.814;7.828;2022-12-18T09:24:01;-4.30;91.50
7998;DHT22;4044;49.814;7.828;2022-12-18T09:26:27;-4.20;91.30
7998;DHT22;4044;49.814;7.828;2022-12-18T09:28:53;-4.40;91.30
7998;DHT22;4044;49.814;7.828;2022-12-18T09:31:21;-4.30;91.90
7998;DHT22;4044;49.814;7.828;2022-12-18T09:33:47;-4.20;91.70
7998;DHT22;4044;49.814;7.828;2022-12-18T09:36:15;-4.10;91.30
7998;DHT22;4044;49.814;7.828;2022-12-18T09:38:41;-4.00;91.30
7998;DHT22;4044;49.814;7.828;2022-12-18T09:43:51;-3.80;91.30
7998;DHT22;4044;49.814;7.828;2022-12-18T09:46:27;-3.60;91.10
7998;DHT22;4044;49.814;7.828;2022-12-18T09:48:57;-3.50;91.10
7998;DHT22;4044;49.814;7.828;2022-12-18T09:54:12;-3.00;90.80
7998;DHT22;4044;49.814;7.828;2022-12-18T09:56:41;-2.80;90.60
7998;DHT22;4044;49.814;7.828;2022-12-18T09:59:26;-2.60;90.50
7998;DHT22;4044;49.814;7.828;2022-12-18T10:01:52;-2.40;90.50
7998;DHT22;4044;49.814;7.828;2022-12-18T10:04:18;-2.20;90.20
7998;DHT22;4044;49.814;7.828;2022-12-18T10:07:03;-2.10;90.00
7998;DHT22;4044;49.814;7.828;2022-12-18T10:10:07;-1.90;90.30
7998;DHT22;4044;49.814;7.828;2022-12-18T10:12:48;-1.70;90.00
7998;DHT22;4044;49.814;7.828;2022-12-18T10:15:27;-1.60;90.00
7998;DHT22;4044;49.814;7.828;2022-12-18T10:20:50;-1.70;89.50
7998;DHT22;4044;49.814;7.828;2022-12-18T10:23:26;-1.50;90.10
7998;DHT22;4044;49.814;7.828;2022-12-18T10:28:33;-1.40;90.00
7998;DHT22;4044;49.814;7.828;2022-12-18T10:31:01;-1.30;89.90
7998;DHT22;4044;49.814;7.828;2022-12-18T10:33:29;-1.20;89.70
7998;DHT22;4044;49.814;7.828;2022-12-18T10:35:55;-1.20;90.00
7998;DHT22;4044;49.814;7.828;2022-12-18T10:38:27;-1.50;89.30
7998;DHT22;4044;49.814;7.828;2022-12-18T10:41:00;-1.60;90.00
7998;DHT22;4044;49.814;7.828;2022-12-18T10:43:34;-1.80;89.60
7998;DHT22;4044;49.814;7.828;2022-12-18T10:48:35;-1.70;90.00
7998;DHT22;4044;49.814;7.828;2022-12-18T10:51:02;-1.60;90.10
7998;DHT22;4044;49.814;7.828;2022-12-18T10:53:30;-1.60;89.60
7998;DHT22;4044;49.814;7.828;2022-12-18T10:55:58;-1.70;90.10
7998;DHT22;4044;49.814;7.828;2022-12-18T11:01:16;-1.60;90.10
7998;DHT22;4044;49.814;7.828;2022-12-18T11:03:46;-1.60;90.10
7998;DHT22;4044;49.814;7.828;2022-12-18T11:06:24;-1.40;90.20
7998;DHT22;4044;49.814;7.828;2022-12-18T11:09:36;-1.30;90.00
7998;DHT22;4044;49.814;7.828;2022-12-18T11:17:19;-1.30;90.10
7998;DHT22;4044;49.814;7.828;2022-12-18T11:19:52;-1.30;89.70
7998;DHT22;4044;49.814;7.828;2022-12-18T11:22:31;-1.40;89.70
7998;DHT22;4044;49.814;7.828;2022-12-18T11:27:40;-1.40;90.00
7998;DHT22;4044;49.814;7.828;2022-12-18T11:30:25;-1.50;90.10
7998;DHT22;4044;49.814;7.828;2022-12-18T11:35:51;-1.40;90.20
7998;DHT22;4044;49.814;7.828;2022-12-18T11:38:32;-1.30;90.20
7998;DHT22;4044;49.814;7.828;2022-12-18T11:43:55;-1.40;90.30
7998;DHT22;4044;49.814;7.828;2022-12-18T11:46:32;-1.50;90.10
7998;DHT22;4044;49.814;7.828;2022-12-18T11:49:22;-1.60;90.20
7998;DHT22;4044;49.814;7.828;2022-12-18T11:54:39;-1.60;90.60
7998;DHT22;4044;49.814;7.828;2022-12-18T12:02:15;-1.50;90.60
7998;DHT22;4044;49.814;7.828;2022-12-18T12:07:43;-1.40;90.50
7998;DHT22;4044;49.814;7.828;2022-12-18T12:13:03;-1.00;90.20
7998;DHT22;4044;49.814;7.828;2022-12-18T12:15:54;-1.10;90.00
7998;DHT22;4044;49.814;7.828;2022-12-18T12:30:08;-1.10;89.80
7998;DHT22;4044;49.814;7.828;2022-12-18T12:32:51;-1.10;89.80
7998;DHT22;4044;49.814;7.828;2022-12-18T12:38:24;-1.20;90.00
7998;DHT22;4044;49.814;7.828;2022-12-18T12:41:03;-1.20;89.90
7998;DHT22;4044;49.814;7.828;2022-12-18T12:43:44;-1.10;90.00
7998;DHT22;4044;49.814;7.828;2022-12-18T12:46:14;-1.10;89.80
7998;DHT22;4044;49.814;7.828;2022-12-18T12:51:22;-1.10;89.60
7998;DHT22;4044;49.814;7.828;2022-12-18T12:53:49;-1.00;89.90
7998;DHT22;4044;49.814;7.828;2022-12-18T12:56:18;-1.00;89.70
7998;DHT22;4044;49.814;7.828;2022-12-18T13:01:28;-1.00;89.80
7998;DHT22;4044;49.814;7.828;2022-12-18T13:07:45;-1.00;89.70
7998;DHT22;4044;49.814;7.828;2022-12-18T13:10:12;-1.10;90.00
7998;DHT22;4044;49.814;7.828;2022-12-18T13:25:50;-1.50;90.60
7998;DHT22;4044;49.814;7.828;2022-12-18T13:30:55;-1.50;90.60
7998;DHT22;4044;49.814;7.828;2022-12-18T13:36:04;-1.40;90.70
7998;DHT22;4044;49.814;7.828;2022-12-18T13:38:36;-1.40;90.90
7998;DHT22;4044;49.814;7.828;2022-12-18T13:43:46;-1.40;90.90
7998;DHT22;4044;49.814;7.828;2022-12-18T13:46:28;-1.30;90.90
7998;DHT22;4044;49.814;7.828;2022-12-18T13:51:23;-1.60;91.10
7998;DHT22;4044;49.814;7.828;2022-12-18T13:53:52;-1.60;91.60
7998;DHT22;4044;49.814;7.828;2022-12-18T13:56:23;-1.70;91.20
7998;DHT22;4044;49.814;7.828;2022-12-18T14:01:36;-1.60;91.40
7998;DHT22;4044;49.814;7.828;2022-12-18T14:04:22;-1.60;91.50
7998;DHT22;4044;49.814;7.828;2022-12-18T14:06:50;-1.70;91.60
7998;DHT22;4044;49.814;7.828;2022-12-18T14:09:23;-1.80;91.60
7998;DHT22;4044;49.814;7.828;2022-12-18T14:11:49;-1.80;91.80
7998;DHT22;4044;49.814;7.828;2022-12-18T14:14:19;-1.80;91.80
7998;DHT22;4044;49.814;7.828;2022-12-18T14:16:46;-1.70;91.70
7998;DHT22;4044;49.814;7.828;2022-12-18T14:19:17;-1.80;91.60
7998;DHT22;4044;49.814;7.828;2022-12-18T14:21:47;-1.90;91.70
7998;DHT22;4044;49.814;7.828;2022-12-18T14:24:17;-2.10;91.80
7998;DHT22;4044;49.814;7.828;2022-12-18T14:26:44;-2.00;92.00
7998;DHT22;4044;49.814;7.828;2022-12-18T14:29:27;-2.10;92.10
7998;DHT22;4044;49.814;7.828;2022-12-18T14:32:09;-2.10;92.20
7998;DHT22;4044;49.814;7.828;2022-12-18T14:34:36;-2.10;92.20
7998;DHT22;4044;49.814;7.828;2022-12-18T14:37:01;-2.10;92.00
7998;DHT22;4044;49.814;7.828;2022-12-18T14:39:27;-2.10;92.10
7998;DHT22;4044;49.814;7.828;2022-12-18T14:41:52;-2.10;92.00
7998;DHT22;4044;49.814;7.828;2022-12-18T14:44:18;-2.10;92.10
7998;DHT22;4044;49.814;7.828;2022-12-18T14:46:45;-2.10;92.00
7998;DHT22;4044;49.814;7.828;2022-12-18T14:49:27;-2.00;92.00
7998;DHT22;4044;49.814;7.828;2022-12-18T14:51:59;-2.00;91.80
7998;DHT22;4044;49.814;7.828;2022-12-18T14:54:27;-2.10;91.80
7998;DHT22;4044;49.814;7.828;2022-12-18T14:59:26;-2.20;92.10
7998;DHT22;4044;49.814;7.828;2022-12-18T15:02:02;-2.30;92.30
7998;DHT22;4044;49.814;7.828;2022-12-18T15:04:35;-2.30;92.20
7998;DHT22;4044;49.814;7.828;2022-12-18T15:09:37;-2.40;92.30
7998;DHT22;4044;49.814;7.828;2022-12-18T15:12:03;-2.40;92.20
7998;DHT22;4044;49.814;7.828;2022-12-18T15:14:39;-2.50;92.30
7998;DHT22;4044;49.814;7.828;2022-12-18T15:17:20;-2.60;92.50
7998;DHT22;4044;49.814;7.828;2022-12-18T15:19:48;-2.60;92.50
7998;DHT22;4044;49.814;7.828;2022-12-18T15:22:30;-2.50;92.60
7998;DHT22;4044;49.814;7.828;2022-12-18T15:24:59;-2.40;92.80
7998;DHT22;4044;49.814;7.828;2022-12-18T15:27:34;-2.40;92.30
7998;DHT22;4044;49.814;7.828;2022-12-18T15:32:36;-2.40;92.40
7998;DHT22;4044;49.814;7.828;2022-12-18T15:37:37;-2.30;92.30
7998;DHT22;4044;49.814;7.828;2022-12-18T15:40:03;-2.30;92.20
7998;DHT22;4044;49.814;7.828;2022-12-18T15:42:29;-2.30;92.20
7998;DHT22;4044;49.814;7.828;2022-12-18T15:45:13;-2.30;92.10
7998;DHT22;4044;49.814;7.828;2022-12-18T15:47:40;-2.40;92.10
7998;DHT22;4044;49.814;7.828;2022-12-18T15:50:07;-2.40;92.20
7998;DHT22;4044;49.814;7.828;2022-12-18T15:52:40;-2.40;92.40
7998;DHT22;4044;49.814;7.828;2022-12-18T15:55:15;-2.50;92.50
7998;DHT22;4044;49.814;7.828;2022-12-18T15:57:59;-2.50;92.70
7998;DHT22;4044;49.814;7.828;2022-12-18T16:00:25;-2.40;92.60
7998;DHT22;4044;49.814;7.828;2022-12-18T16:02:51;-2.50;92.60
7998;DHT22;4044;49.814;7.828;2022-12-18T16:05:18;-2.50;92.60
7998;DHT22;4044;49.814;7.828;2022-12-18T16:07:44;-2.50;92.70
7998;DHT22;4044;49.814;7.828;2022-12-18T16:10:10;-2.50;92.60
7998;DHT22;4044;49.814;7.828;2022-12-18T16:12:36;-2.40;92.50
7998;DHT22;4044;49.814;7.828;2022-12-18T16:15:03;-2.30;92.60
7998;DHT22;4044;49.814;7.828;2022-12-18T16:17:29;-2.40;92.40
7998;DHT22;4044;49.814;7.828;2022-12-18T16:19:55;-2.40;92.40
7998;DHT22;4044;49.814;7.828;2022-12-18T16:22:23;-2.40;92.40
7998;DHT22;4044;49.814;7.828;2022-12-18T16:24:50;-2.40;92.40
7998;DHT22;4044;49.814;7.828;2022-12-18T16:27:17;-2.40;92.30
7998;DHT22;4044;49.814;7.828;2022-12-18T16:29:43;-2.40;92.40
7998;DHT22;4044;49.814;7.828;2022-12-18T16:32:12;-2.50;92.40
7998;DHT22;4044;49.814;7.828;2022-12-18T16:34:38;-2.50;92.40
7998;DHT22;4044;49.814;7.828;2022-12-18T16:37:06;-2.40;92.40
7998;DHT22;4044;49.814;7.828;2022-12-18T16:39:33;-2.40;92.50
7998;DHT22;4044;49.814;7.828;2022-12-18T16:42:00;-2.40;92.30
7998;DHT22;4044;49.814;7.828;2022-12-18T16:44:26;-2.40;92.40
7998;DHT22;4044;49.814;7.828;2022-12-18T16:46:52;-2.40;92.30
7998;DHT22;4044;49.814;7.828;2022-12-18T16:49:18;-2.40;92.60
7998;DHT22;4044;49.814;7.828;2022-12-18T16:51:45;-2.30;92.50
7998;DHT22;4044;49.814;7.828;2022-12-18T16:54:11;-2.30;92.50
7998;DHT22;4044;49.814;7.828;2022-12-18T16:56:37;-2.20;92.60
7998;DHT22;4044;49.814;7.828;2022-12-18T16:59:03;-2.20;92.30
7998;DHT22;4044;49.814;7.828;2022-12-18T17:01:30;-2.10;92.60
7998;DHT22;4044;49.814;7.828;2022-12-18T17:03:58;-2.10;92.30
7998;DHT22;4044;49.814;7.828;2022-12-18T17:06:25;-2.20;92.60
7998;DHT22;4044;49.814;7.828;2022-12-18T17:09:02;-2.10;92.60
7998;DHT22;4044;49.814;7.828;2022-12-18T17:11:30;-2.10;92.60
7998;DHT22;4044;49.814;7.828;2022-12-18T17:13:56;-2.20;92.30
7998;DHT22;4044;49.814;7.828;2022-12-18T17:16:22;-2.10;92.60
7998;DHT22;4044;49.814;7.828;2022-12-18T17:18:48;-2.10;92.50
7998;DHT22;4044;49.814;7.828;2022-12-18T17:21:14;-2.20;92.20
7998;DHT22;4044;49.814;7.828;2022-12-18T17:23:41;-2.10;92.50
7998;DHT22;4044;49.814;7.828;2022-12-18T17:26:12;-2.10;92.40
7998;DHT22;4044;49.814;7.828;2022-12-18T17:28:39;-2.10;92.50
7998;DHT22;4044;49.814;7.828;2022-12-18T17:31:12;-2.20;92.70
7998;DHT22;4044;49.814;7.828;2022-12-18T17:33:38;-2.10;92.60
7998;DHT22;4044;49.814;7.828;2022-12-18T17:36:04;-2.00;92.60
7998;DHT22;4044;49.814;7.828;2022-12-18T17:38:30;-1.90;92.50
7998;DHT22;4044;49.814;7.828;2022-12-18T17:41:00;-1.90;92.30
7998;DHT22;4044;49.814;7.828;2022-12-18T17:43:26;-2.00;92.30
7998;DHT22;4044;49.814;7.828;2022-12-18T17:45:51;-1.80;92.60
7998;DHT22;4044;49.814;7.828;2022-12-18T17:48:17;-1.80;92.60
7998;DHT22;4044;49.814;7.828;2022-12-18T17:50:42;-1.80;92.60
7998;DHT22;4044;49.814;7.828;2022-12-18T17:53:08;-2.10;92.40
7998;DHT22;4044;49.814;7.828;2022-12-18T17:55:33;-2.30;92.70
7998;DHT22;4044;49.814;7.828;2022-12-18T17:57:59;-2.40;93.30
7998;DHT22;4044;49.814;7.828;2022-12-18T18:00:25;-2.40;93.20
7998;DHT22;4044;49.814;7.828;2022-12-18T18:02:50;-2.30;93.20
7998;DHT22;4044;49.814;7.828;2022-12-18T18:05:16;-2.20;93.30
7998;DHT22;4044;49.814;7.828;2022-12-18T18:07:42;-2.10;93.30
7998;DHT22;4044;49.814;7.828;2022-12-18T18:10:08;-2.00;93.10
7998;DHT22;4044;49.814;7.828;2022-12-18T18:12:33;-2.10;93.10
7998;DHT22;4044;49.814;7.828;2022-12-18T18:15:19;-2.00;93.10
7998;DHT22;4044;49.814;7.828;2022-12-18T18:17:44;-2.00;93.20